PWSweather.com
Personal Weather Stations
Station Observations
KKSTOPEK1
South Central , Topeka, KS 66611

South Central Topeka, KS 66611

Lat: 39.03, Lon: -95.71

Elevation: 945

Station Type: Davis Vantage Vue

http://tallgrasspixels.net/wx/wx.html

High Low Average
Temperature 80.6°F27.0°F 65.3°F18.5°F 72.0°F22.2°F
Dew Point 70.7°F21.5°F 63.8°F17.7°F 67.2°F19.6°F
Winds 3.1 mph ESE5.0 mph ESE Calm Calm 0.5 mph 0.8 mph
Wind Gusts 8.0 mph12.9 mph -- 1.4 mph2.3 mph
Humidity 97% 68% 86%
Pressure 29.86 in1011.20 in 29.70 in1005.80 in -
Precipitation 1.49 in37.80 in - -
Hour Temp Dew Point Humidity Winds Wind Gusts Pressure Precip Precip Rate Daily Precip Total
12:00 AM 66.8°F19.3°C 65.3°F18.5°C 95% 0.3 mph SSW0.5 kmh SSW 1.0 mph1.6 kmh 29.83 in1010.2 mb 0.02 in0.5 mm 0.00 in/hr0.0 mm/hr 0.02 in0.5 mm
12:10 AM 66.7°F19.3°C 65.2°F18.4°C 95% 0.2 mph SSE0.3 kmh SSE 1.0 mph1.6 kmh 29.84 in1010.5 mb 0.05 in1.3 mm 0.30 in/hr7.6 mm/hr 0.05 in1.3 mm
12:20 AM 66.6°F19.2°C 65.1°F18.4°C 95% 0.4 mph SE0.6 kmh SE 2.0 mph3.2 kmh 29.83 in1010.2 mb 0.04 in1.0 mm 0.24 in/hr6.1 mm/hr 0.08 in2.0 mm
12:30 AM 66.5°F19.2°C 65.0°F18.3°C 95% 1.1 mph SSE1.8 kmh SSE 5.0 mph8.0 kmh 29.80 in1009.1 mb 0.03 in0.8 mm 0.18 in/hr4.6 mm/hr 0.11 in2.8 mm
12:40 AM 66.4°F19.1°C 64.9°F18.3°C 95% 1.1 mph SE1.8 kmh SE 2.0 mph3.2 kmh 29.79 in1008.8 mb 0.03 in0.8 mm 0.18 in/hr4.6 mm/hr 0.15 in3.8 mm
12:50 AM 66.4°F19.1°C 64.9°F18.3°C 95% 1.4 mph ESE2.3 kmh ESE 2.0 mph3.2 kmh 29.77 in1008.1 mb 0.05 in1.3 mm 0.30 in/hr7.6 mm/hr 0.19 in4.8 mm
01:00 AM 66.4°F19.1°C 64.9°F18.3°C 95% 1.5 mph S2.4 kmh S 3.0 mph4.8 kmh 29.76 in1007.8 mb 0.06 in1.5 mm 0.07 in/hr1.8 mm/hr 0.24 in6.1 mm
01:10 AM 66.6°F19.2°C 65.4°F18.6°C 96% 0.4 mph E0.6 kmh E 1.0 mph1.6 kmh 29.76 in1007.8 mb 0.05 in1.3 mm 0.30 in/hr7.6 mm/hr 0.28 in7.1 mm
01:20 AM 66.7°F19.3°C 65.2°F18.4°C 95% 0.3 mph E0.5 kmh E 1.0 mph1.6 kmh 29.75 in1007.5 mb 0.03 in0.8 mm 0.18 in/hr4.6 mm/hr 0.31 in7.9 mm
01:30 AM 66.8°F19.3°C 65.3°F18.5°C 95% 0.8 mph N1.3 kmh N 1.0 mph1.6 kmh 29.77 in1008.1 mb 0.04 in1.0 mm 0.24 in/hr6.1 mm/hr 0.35 in8.9 mm
01:40 AM 66.9°F19.4°C 65.7°F18.7°C 96% Calm Calm -- 29.81 in1009.5 mb 0.06 in1.5 mm 0.36 in/hr9.1 mm/hr 0.40 in10.2 mm
01:50 AM 67.0°F19.4°C 65.8°F18.8°C 96% 0.4 mph NE0.6 kmh NE 1.0 mph1.6 kmh 29.83 in1010.2 mb 0.05 in1.3 mm 0.30 in/hr7.6 mm/hr 0.44 in11.2 mm
02:00 AM 66.9°F19.4°C 65.7°F18.7°C 96% 0.5 mph SE0.8 kmh SE 2.0 mph3.2 kmh 29.84 in1010.5 mb 0.04 in1.0 mm 0.05 in/hr1.3 mm/hr 0.47 in11.9 mm
02:10 AM 66.7°F19.3°C 65.5°F18.6°C 96% 0.1 mph ESE0.2 kmh ESE 2.0 mph3.2 kmh 29.80 in1009.1 mb 0.05 in1.3 mm 0.30 in/hr7.6 mm/hr 0.52 in13.2 mm
02:20 AM 66.7°F19.3°C 65.5°F18.6°C 96% 1.0 mph SE1.6 kmh SE 4.0 mph6.4 kmh 29.82 in1009.8 mb 0.04 in1.0 mm 0.24 in/hr6.1 mm/hr 0.55 in14.0 mm
02:30 AM 66.7°F19.3°C 65.5°F18.6°C 96% 1.3 mph SE2.1 kmh SE 4.0 mph6.4 kmh 29.79 in1008.8 mb 0.04 in1.0 mm 0.24 in/hr6.1 mm/hr 0.59 in15.0 mm
02:40 AM 66.6°F19.2°C 65.4°F18.6°C 96% 1.4 mph SE2.3 kmh SE 3.0 mph4.8 kmh 29.78 in1008.5 mb 0.04 in1.0 mm 0.24 in/hr6.1 mm/hr 0.63 in16.0 mm
02:50 AM 66.7°F19.3°C 65.5°F18.6°C 96% 0.2 mph SE0.3 kmh SE 1.0 mph1.6 kmh 29.80 in1009.1 mb 0.03 in0.8 mm 0.18 in/hr4.6 mm/hr 0.66 in16.8 mm
03:00 AM 66.7°F19.3°C 65.5°F18.6°C 96% 2.4 mph ENE3.9 kmh ENE 3.0 mph4.8 kmh 29.76 in1007.8 mb 0.04 in1.0 mm 0.05 in/hr1.3 mm/hr 0.70 in17.8 mm
03:10 AM 66.6°F19.2°C 65.4°F18.6°C 96% 2.5 mph SE4.0 kmh SE 5.0 mph8.0 kmh 29.74 in1007.1 mb 0.02 in0.5 mm 0.12 in/hr3.0 mm/hr 0.72 in18.3 mm
03:20 AM 66.5°F19.2°C 65.3°F18.5°C 96% 2.4 mph S3.9 kmh S 5.0 mph8.0 kmh 29.72 in1006.4 mb 0.03 in0.8 mm 0.18 in/hr4.6 mm/hr 0.75 in19.1 mm
03:30 AM 66.6°F19.2°C 65.4°F18.6°C 96% 3.1 mph ESE5.0 kmh ESE 4.0 mph6.4 kmh 29.73 in1006.8 mb 0.01 in0.3 mm 0.06 in/hr1.5 mm/hr 0.76 in19.3 mm
03:40 AM 66.6°F19.2°C 65.5°F18.6°C 96% 1.6 mph SE2.6 kmh SE 5.0 mph8.0 kmh 29.73 in1006.8 mb 0.01 in0.3 mm 0.06 in/hr1.5 mm/hr 0.77 in19.6 mm
03:50 AM 66.5°F19.2°C 65.0°F18.3°C 95% 1.7 mph E2.7 kmh E 4.0 mph6.4 kmh 29.70 in1005.8 mb 0.01 in0.3 mm 0.06 in/hr1.5 mm/hr 0.78 in19.8 mm
04:00 AM 66.4°F19.1°C 64.9°F18.3°C 95% 2.4 mph ESE3.9 kmh ESE 3.0 mph4.8 kmh 29.70 in1005.8 mb 0.01 in0.3 mm 0.01 in/hr0.3 mm/hr 0.79 in20.1 mm
04:10 AM 66.5°F19.2°C 65.4°F18.6°C 96% 2.7 mph SE4.3 kmh SE 6.0 mph9.7 kmh 29.75 in1007.5 mb 0.00 in0.0 mm 0.00 in/hr0.0 mm/hr 0.79 in20.1 mm
04:20 AM 66.6°F19.2°C 65.1°F18.4°C 95% 1.0 mph SE1.6 kmh SE 2.0 mph3.2 kmh 29.74 in1007.1 mb 0.00 in0.0 mm 0.00 in/hr0.0 mm/hr 0.79 in20.1 mm
04:30 AM 66.5°F19.2°C 65.3°F18.5°C 96% 0.6 mph S1.0 kmh S 2.0 mph3.2 kmh 29.75 in1007.5 mb 0.00 in0.0 mm 0.00 in/hr0.0 mm/hr 0.79 in20.1 mm
04:40 AM 66.4°F19.1°C 65.2°F18.4°C 96% 0.3 mph S0.5 kmh S 1.0 mph1.6 kmh 29.74 in1007.1 mb 0.00 in0.0 mm 0.00 in/hr0.0 mm/hr 0.79 in20.1 mm
04:50 AM 66.4°F19.1°C 64.9°F18.3°C 95% 0.8 mph SSW1.3 kmh SSW 2.0 mph3.2 kmh 29.74 in1007.1 mb 0.00 in0.0 mm 0.00 in/hr0.0 mm/hr 0.79 in20.1 mm
05:00 AM 66.4°F19.1°C 64.9°F18.3°C 95% Calm Calm 1.0 mph1.6 kmh 29.75 in1007.5 mb 0.00 in0.0 mm 0.00 in/hr0.0 mm/hr 0.79 in20.1 mm
05:10 AM 66.3°F19.1°C 65.1°F18.4°C 96% 0.1 mph WSW0.2 kmh WSW 1.0 mph1.6 kmh 29.74 in1007.1 mb 0.00 in0.0 mm 0.00 in/hr0.0 mm/hr 0.79 in20.1 mm
05:20 AM 66.2°F19.0°C 65.0°F18.3°C 96% 0.1 mph SW0.2 kmh SW 2.0 mph3.2 kmh 29.75 in1007.5 mb 0.00 in0.0 mm 0.00 in/hr0.0 mm/hr 0.79 in20.1 mm
05:30 AM 66.1°F18.9°C 64.9°F18.3°C 96% 0.2 mph SSE0.3 kmh SSE 1.0 mph1.6 kmh 29.75 in1007.5 mb 0.00 in0.0 mm 0.00 in/hr0.0 mm/hr 0.79 in20.1 mm
05:40 AM 66.0°F18.9°C 64.5°F18.1°C 95% 0.9 mph SSE1.4 kmh SSE 2.0 mph3.2 kmh 29.76 in1007.8 mb 0.00 in0.0 mm 0.00 in/hr0.0 mm/hr 0.79 in20.1 mm
05:50 AM 65.9°F18.8°C 64.4°F18.0°C 95% 0.5 mph S0.8 kmh S 2.0 mph3.2 kmh 29.76 in1007.8 mb 0.00 in0.0 mm 0.00 in/hr0.0 mm/hr 0.79 in20.1 mm
06:00 AM 65.9°F18.8°C 64.4°F18.0°C 95% 0.2 mph S0.3 kmh S 1.0 mph1.6 kmh 29.77 in1008.1 mb 0.00 in0.0 mm 0.00 in/hr0.0 mm/hr 0.79 in20.1 mm
06:10 AM 66.0°F18.9°C 64.5°F18.1°C 95% 0.6 mph SW1.0 kmh SW 2.0 mph3.2 kmh 29.77 in1008.1 mb 0.00 in0.0 mm 0.00 in/hr0.0 mm/hr 0.79 in20.1 mm
06:20 AM 66.0°F18.9°C 64.5°F18.1°C 95% 0.2 mph SW0.3 kmh SW -- 29.78 in1008.5 mb 0.00 in0.0 mm 0.00 in/hr0.0 mm/hr 0.79 in20.1 mm
06:30 AM 66.0°F18.9°C 64.5°F18.1°C 95% 0.2 mph SW0.3 kmh SW 1.0 mph1.6 kmh 29.78 in1008.5 mb 0.00 in0.0 mm 0.00 in/hr0.0 mm/hr 0.79 in20.1 mm
06:40 AM 65.8°F18.8°C 64.3°F17.9°C 95% 0.1 mph SSW0.2 kmh SSW -- 29.78 in1008.5 mb 0.00 in0.0 mm 0.00 in/hr0.0 mm/hr 0.79 in20.1 mm
06:50 AM 65.7°F18.7°C 64.2°F17.9°C 95% 0.1 mph WSW0.2 kmh WSW 1.0 mph1.6 kmh 29.78 in1008.5 mb 0.00 in0.0 mm 0.00 in/hr0.0 mm/hr 0.79 in20.1 mm
07:00 AM 65.5°F18.6°C 64.0°F17.8°C 95% Calm Calm -- 29.79 in1008.8 mb 0.00 in0.0 mm 0.00 in/hr0.0 mm/hr 0.79 in20.1 mm
07:10 AM 65.4°F18.6°C 63.9°F17.7°C 95% 0.3 mph SE0.5 kmh SE -- 29.79 in1008.8 mb 0.00 in0.0 mm 0.00 in/hr0.0 mm/hr 0.79 in20.1 mm
07:20 AM 65.3°F18.5°C 63.8°F17.7°C 95% 0.9 mph SW1.4 kmh SW 1.0 mph1.6 kmh 29.79 in1008.8 mb 0.00 in0.0 mm 0.00 in/hr0.0 mm/hr 0.79 in20.1 mm
07:30 AM 65.3°F18.5°C 63.8°F17.7°C 95% 0.1 mph SSW0.2 kmh SSW 1.0 mph1.6 kmh 29.79 in1008.8 mb 0.00 in0.0 mm 0.00 in/hr0.0 mm/hr 0.79 in20.1 mm
07:40 AM 65.4°F18.6°C 63.9°F17.7°C 95% Calm Calm -- 29.80 in1009.1 mb 0.00 in0.0 mm 0.00 in/hr0.0 mm/hr 0.79 in20.1 mm
07:50 AM 65.5°F18.6°C 64.0°F17.8°C 95% 0.7 mph ESE1.1 kmh ESE 1.0 mph1.6 kmh 29.81 in1009.5 mb 0.00 in0.0 mm 0.00 in/hr0.0 mm/hr 0.79 in20.1 mm
08:00 AM 65.7°F18.7°C 64.2°F17.9°C 95% Calm Calm -- 29.81 in1009.5 mb 0.00 in0.0 mm 0.00 in/hr0.0 mm/hr 0.79 in20.1 mm
08:10 AM 65.8°F18.8°C 64.3°F17.9°C 95% 0.2 mph SW0.3 kmh SW 1.0 mph1.6 kmh 29.81 in1009.5 mb 0.00 in0.0 mm 0.00 in/hr0.0 mm/hr 0.79 in20.1 mm
08:20 AM 65.9°F18.8°C 64.4°F18.0°C 95% 0.1 mph SW0.2 kmh SW -- 29.81 in1009.5 mb 0.00 in0.0 mm 0.00 in/hr0.0 mm/hr 0.79 in20.1 mm
08:30 AM 66.2°F19.0°C 64.4°F18.0°C 94% 0.2 mph SSE0.3 kmh SSE 1.0 mph1.6 kmh 29.82 in1009.8 mb 0.00 in0.0 mm 0.00 in/hr0.0 mm/hr 0.79 in20.1 mm
08:40 AM 66.7°F19.3°C 64.6°F18.1°C 93% 0.1 mph S0.2 kmh S -- 29.82 in1009.8 mb 0.00 in0.0 mm 0.00 in/hr0.0 mm/hr 0.79 in20.1 mm
08:50 AM 67.4°F19.7°C 65.3°F18.5°C 93% 0.2 mph SW0.3 kmh SW 1.0 mph1.6 kmh 29.81 in1009.5 mb 0.00 in0.0 mm 0.00 in/hr0.0 mm/hr 0.79 in20.1 mm
09:00 AM 68.0°F20.0°C 65.3°F18.5°C 91% 1.0 mph ESE1.6 kmh ESE 5.0 mph8.0 kmh 29.81 in1009.5 mb 0.00 in0.0 mm 0.00 in/hr0.0 mm/hr 0.79 in20.1 mm
09:10 AM 68.3°F20.2°C 65.2°F18.4°C 90% 0.2 mph SW0.3 kmh SW 2.0 mph3.2 kmh 29.81 in1009.5 mb 0.00 in0.0 mm 0.00 in/hr0.0 mm/hr 0.79 in20.1 mm
09:20 AM 68.7°F20.4°C 65.3°F18.5°C 89% 1.5 mph SSW2.4 kmh SSW 2.0 mph3.2 kmh 29.82 in1009.8 mb 0.00 in0.0 mm 0.00 in/hr0.0 mm/hr 0.79 in20.1 mm
09:30 AM 69.3°F20.7°C 65.9°F18.8°C 89% 0.5 mph SW0.8 kmh SW -- 29.83 in1010.2 mb 0.00 in0.0 mm 0.00 in/hr0.0 mm/hr 0.79 in20.1 mm
09:40 AM 69.9°F21.1°C 66.2°F19.0°C 88% 1.0 mph WNW1.6 kmh WNW 4.0 mph6.4 kmh 29.83 in1010.2 mb 0.00 in0.0 mm 0.00 in/hr0.0 mm/hr 0.79 in20.1 mm
09:50 AM 70.2°F21.2°C 65.8°F18.8°C 86% 1.6 mph WSW2.6 kmh WSW 2.0 mph3.2 kmh 29.83 in1010.2 mb 0.00 in0.0 mm 0.00 in/hr0.0 mm/hr 0.79 in20.1 mm
10:00 AM 70.3°F21.3°C 65.3°F18.5°C 84% 0.9 mph SW1.4 kmh SW 4.0 mph6.4 kmh 29.84 in1010.5 mb 0.00 in0.0 mm 0.00 in/hr0.0 mm/hr 0.79 in20.1 mm
10:10 AM 71.3°F21.8°C 65.9°F18.8°C 83% 0.6 mph S1.0 kmh S 1.0 mph1.6 kmh 29.84 in1010.5 mb 0.00 in0.0 mm 0.00 in/hr0.0 mm/hr 0.79 in20.1 mm
10:20 AM 72.2°F22.3°C 66.4°F19.1°C 82% 1.1 mph WSW1.8 kmh WSW 1.0 mph1.6 kmh 29.84 in1010.5 mb 0.00 in0.0 mm 0.00 in/hr0.0 mm/hr 0.79 in20.1 mm
10:30 AM 73.1°F22.8°C 66.6°F19.2°C 80% 1.6 mph SSW2.6 kmh SSW 4.0 mph6.4 kmh 29.85 in1010.8 mb 0.00 in0.0 mm 0.00 in/hr0.0 mm/hr 0.79 in20.1 mm
10:40 AM 74.1°F23.4°C 67.5°F19.7°C 80% 1.2 mph WNW1.9 kmh WNW 3.0 mph4.8 kmh 29.86 in1011.2 mb 0.00 in0.0 mm 0.00 in/hr0.0 mm/hr 0.79 in20.1 mm
10:50 AM 74.7°F23.7°C 67.0°F19.4°C 77% 1.6 mph W2.6 kmh W 5.0 mph8.0 kmh 29.86 in1011.2 mb 0.00 in0.0 mm 0.00 in/hr0.0 mm/hr 0.79 in20.1 mm
11:00 AM 75.2°F24.0°C 67.5°F19.7°C 77% 1.1 mph WSW1.8 kmh WSW 4.0 mph6.4 kmh 29.86 in1011.2 mb 0.00 in0.0 mm 0.00 in/hr0.0 mm/hr 0.79 in20.1 mm
11:10 AM 75.7°F24.3°C 66.8°F19.3°C 74% 2.2 mph WSW3.5 kmh WSW 8.0 mph12.9 kmh 29.86 in1011.2 mb 0.00 in0.0 mm 0.00 in/hr0.0 mm/hr 0.79 in20.1 mm
11:20 AM 75.9°F24.4°C 67.4°F19.7°C 75% 1.6 mph WSW2.6 kmh WSW 4.0 mph6.4 kmh 29.86 in1011.2 mb 0.00 in0.0 mm 0.00 in/hr0.0 mm/hr 0.79 in20.1 mm
11:30 AM 76.5°F24.7°C 67.5°F19.7°C 74% 1.0 mph SSE1.6 kmh SSE 2.0 mph3.2 kmh 29.86 in1011.2 mb 0.00 in0.0 mm 0.00 in/hr0.0 mm/hr 0.79 in20.1 mm
11:40 AM 77.9°F25.5°C 68.1°F20.1°C 72% 1.2 mph S1.9 kmh S 2.0 mph3.2 kmh 29.86 in1011.2 mb 0.00 in0.0 mm 0.00 in/hr0.0 mm/hr 0.79 in20.1 mm
11:50 AM 78.5°F25.8°C 68.7°F20.4°C 72% 1.6 mph SW2.6 kmh SW 6.0 mph9.7 kmh 29.86 in1011.2 mb 0.00 in0.0 mm 0.00 in/hr0.0 mm/hr 0.79 in20.1 mm
12:00 PM 78.9°F26.1°C 67.9°F19.9°C 69% 0.6 mph SW1.0 kmh SW 1.0 mph1.6 kmh 29.86 in1011.2 mb 0.00 in0.0 mm 0.00 in/hr0.0 mm/hr 0.79 in20.1 mm
12:10 PM 79.3°F26.3°C 68.6°F20.3°C 70% 0.9 mph SW1.4 kmh SW 1.0 mph1.6 kmh 29.86 in1011.2 mb 0.00 in0.0 mm 0.00 in/hr0.0 mm/hr 0.79 in20.1 mm
12:20 PM 80.0°F26.7°C 68.5°F20.3°C 68% 1.6 mph NW2.6 kmh NW 4.0 mph6.4 kmh 29.86 in1011.2 mb 0.00 in0.0 mm 0.00 in/hr0.0 mm/hr 0.79 in20.1 mm
12:30 PM 79.4°F26.3°C 68.3°F20.2°C 69% 0.6 mph WSW1.0 kmh WSW 2.0 mph3.2 kmh 29.86 in1011.2 mb 0.00 in0.0 mm 0.00 in/hr0.0 mm/hr 0.79 in20.1 mm
12:40 PM 78.5°F25.8°C 68.7°F20.4°C 72% 0.7 mph S1.1 kmh S 3.0 mph4.8 kmh 29.86 in1011.2 mb 0.00 in0.0 mm 0.00 in/hr0.0 mm/hr 0.79 in20.1 mm
12:50 PM 77.7°F25.4°C 68.0°F20.0°C 72% 3.0 mph SSW4.8 kmh SSW 5.0 mph8.0 kmh 29.86 in1011.2 mb 0.00 in0.0 mm 0.00 in/hr0.0 mm/hr 0.79 in20.1 mm
01:00 PM 77.7°F25.4°C 67.9°F19.9°C 72% 1.7 mph SW2.7 kmh SW 5.0 mph8.0 kmh 29.86 in1011.2 mb 0.00 in0.0 mm 0.00 in/hr0.0 mm/hr 0.79 in20.1 mm
01:10 PM 77.5°F25.3°C 68.6°F20.3°C 74% 0.3 mph S0.5 kmh S 1.0 mph1.6 kmh 29.86 in1011.2 mb 0.00 in0.0 mm 0.00 in/hr0.0 mm/hr 0.79 in20.1 mm
01:20 PM 77.8°F25.4°C 68.4°F20.2°C 73% 0.2 mph S0.3 kmh S -- 29.86 in1011.2 mb 0.00 in0.0 mm 0.00 in/hr0.0 mm/hr 0.79 in20.1 mm
01:30 PM 77.9°F25.5°C 68.9°F20.5°C 74% 0.3 mph SSW0.5 kmh SSW 1.0 mph1.6 kmh 29.86 in1011.2 mb 0.00 in0.0 mm 0.00 in/hr0.0 mm/hr 0.79 in20.1 mm
01:40 PM 78.2°F25.7°C 68.8°F20.4°C 73% 0.4 mph SSW0.6 kmh SSW 2.0 mph3.2 kmh 29.86 in1011.2 mb 0.00 in0.0 mm 0.00 in/hr0.0 mm/hr 0.79 in20.1 mm
01:50 PM 78.7°F25.9°C 68.9°F20.5°C 72% 0.1 mph SW0.2 kmh SW 1.0 mph1.6 kmh 29.86 in1011.2 mb 0.00 in0.0 mm 0.00 in/hr0.0 mm/hr 0.79 in20.1 mm
02:00 PM 78.4°F25.8°C 67.8°F19.9°C 70% 1.1 mph SSW1.8 kmh SSW 2.0 mph3.2 kmh 29.86 in1011.2 mb 0.00 in0.0 mm 0.00 in/hr0.0 mm/hr 0.79 in20.1 mm
02:10 PM 78.3°F25.7°C 68.9°F20.5°C 73% 0.1 mph ESE0.2 kmh ESE 1.0 mph1.6 kmh 29.86 in1011.2 mb 0.00 in0.0 mm 0.00 in/hr0.0 mm/hr 0.79 in20.1 mm
02:20 PM 78.6°F25.9°C 68.4°F20.2°C 71% 0.4 mph WSW0.6 kmh WSW 1.0 mph1.6 kmh 29.85 in1010.8 mb 0.00 in0.0 mm 0.00 in/hr0.0 mm/hr 0.79 in20.1 mm
02:30 PM 79.1°F26.2°C 68.5°F20.3°C 70% 1.0 mph SW1.6 kmh SW 5.0 mph8.0 kmh 29.85 in1010.8 mb 0.00 in0.0 mm 0.00 in/hr0.0 mm/hr 0.79 in20.1 mm
02:40 PM 79.1°F26.2°C 68.5°F20.3°C 70% 0.9 mph SE1.4 kmh SE 1.0 mph1.6 kmh 29.85 in1010.8 mb 0.00 in0.0 mm 0.00 in/hr0.0 mm/hr 0.79 in20.1 mm
02:50 PM 79.7°F26.5°C 68.6°F20.3°C 69% 0.2 mph NW0.3 kmh NW 2.0 mph3.2 kmh 29.84 in1010.5 mb 0.00 in0.0 mm 0.00 in/hr0.0 mm/hr 0.79 in20.1 mm
03:00 PM 79.0°F26.1°C 68.4°F20.2°C 70% 0.3 mph WSW0.5 kmh WSW 1.0 mph1.6 kmh 29.84 in1010.5 mb 0.00 in0.0 mm 0.00 in/hr0.0 mm/hr 0.79 in20.1 mm
03:10 PM 79.0°F26.1°C 69.2°F20.7°C 72% 0.1 mph SW0.2 kmh SW 1.0 mph1.6 kmh 29.84 in1010.5 mb 0.00 in0.0 mm 0.00 in/hr0.0 mm/hr 0.79 in20.1 mm
03:20 PM 79.1°F26.2°C 68.9°F20.5°C 71% Calm Calm -- 29.84 in1010.5 mb 0.00 in0.0 mm 0.00 in/hr0.0 mm/hr 0.79 in20.1 mm
03:30 PM 79.6°F26.4°C 69.0°F20.6°C 70% Calm Calm -- 29.84 in1010.5 mb 0.00 in0.0 mm 0.00 in/hr0.0 mm/hr 0.79 in20.1 mm
03:40 PM 79.9°F26.6°C 69.2°F20.7°C 70% 0.1 mph N0.2 kmh N -- 29.84 in1010.5 mb 0.00 in0.0 mm 0.00 in/hr0.0 mm/hr 0.79 in20.1 mm
03:50 PM 80.6°F27.0°C 69.1°F20.6°C 68% Calm Calm -- 29.83 in1010.2 mb 0.00 in0.0 mm 0.00 in/hr0.0 mm/hr 0.79 in20.1 mm
04:00 PM 80.3°F26.8°C 68.8°F20.4°C 68% 0.2 mph SW0.3 kmh SW 1.0 mph1.6 kmh 29.83 in1010.2 mb 0.00 in0.0 mm 0.00 in/hr0.0 mm/hr 0.79 in20.1 mm
04:10 PM 79.8°F26.6°C 68.3°F20.2°C 68% 0.3 mph WSW0.5 kmh WSW 2.0 mph3.2 kmh 29.83 in1010.2 mb 0.00 in0.0 mm 0.00 in/hr0.0 mm/hr 0.79 in20.1 mm
04:20 PM 79.6°F26.4°C 68.1°F20.1°C 68% 0.3 mph WSW0.5 kmh WSW 1.0 mph1.6 kmh 29.83 in1010.2 mb 0.00 in0.0 mm 0.00 in/hr0.0 mm/hr 0.79 in20.1 mm
04:30 PM 79.3°F26.3°C 68.7°F20.4°C 70% Calm Calm -- 29.83 in1010.2 mb 0.00 in0.0 mm 0.00 in/hr0.0 mm/hr 0.79 in20.1 mm
04:40 PM 79.1°F26.2°C 68.9°F20.5°C 71% Calm Calm -- 29.83 in1010.2 mb 0.00 in0.0 mm 0.00 in/hr0.0 mm/hr 0.79 in20.1 mm
04:50 PM 79.1°F26.2°C 69.3°F20.7°C 72% Calm Calm -- 29.83 in1010.2 mb 0.00 in0.0 mm 0.00 in/hr0.0 mm/hr 0.79 in20.1 mm
05:00 PM 79.1°F26.2°C 69.3°F20.7°C 72% Calm Calm -- 29.83 in1010.2 mb 0.00 in0.0 mm 0.00 in/hr0.0 mm/hr 0.79 in20.1 mm
05:10 PM 78.9°F26.1°C 69.5°F20.8°C 73% Calm Calm -- 29.83 in1010.2 mb 0.00 in0.0 mm 0.00 in/hr0.0 mm/hr 0.79 in20.1 mm
05:20 PM 78.9°F26.1°C 69.5°F20.8°C 73% Calm Calm -- 29.83 in1010.2 mb 0.00 in0.0 mm 0.00 in/hr0.0 mm/hr 0.79 in20.1 mm
05:30 PM 78.7°F25.9°C 68.9°F20.5°C 72% 0.3 mph NE0.5 kmh NE 1.0 mph1.6 kmh 29.83 in1010.2 mb 0.00 in0.0 mm 0.00 in/hr0.0 mm/hr 0.79 in20.1 mm
05:40 PM 78.5°F25.8°C 69.1°F20.6°C 73% 0.2 mph ENE0.3 kmh ENE 1.0 mph1.6 kmh 29.83 in1010.2 mb 0.00 in0.0 mm 0.00 in/hr0.0 mm/hr 0.79 in20.1 mm
05:50 PM 78.4°F25.8°C 68.2°F20.1°C 71% Calm Calm -- 29.83 in1010.2 mb 0.00 in0.0 mm 0.00 in/hr0.0 mm/hr 0.79 in20.1 mm
06:00 PM 78.6°F25.9°C 69.6°F20.9°C 74% Calm Calm -- 29.83 in1010.2 mb 0.00 in0.0 mm 0.00 in/hr0.0 mm/hr 0.79 in20.1 mm
06:10 PM 78.7°F25.9°C 68.5°F20.3°C 71% Calm Calm -- 29.83 in1010.2 mb 0.00 in0.0 mm 0.00 in/hr0.0 mm/hr 0.79 in20.1 mm
06:20 PM 78.9°F26.1°C 69.9°F21.1°C 74% Calm Calm -- 29.83 in1010.2 mb 0.00 in0.0 mm 0.00 in/hr0.0 mm/hr 0.79 in20.1 mm
06:30 PM 79.1°F26.2°C 69.3°F20.7°C 72% Calm Calm -- 29.83 in1010.2 mb 0.00 in0.0 mm 0.00 in/hr0.0 mm/hr 0.79 in20.1 mm
06:40 PM 78.9°F26.1°C 68.3°F20.2°C 70% Calm Calm -- 29.82 in1009.8 mb 0.00 in0.0 mm 0.00 in/hr0.0 mm/hr 0.79 in20.1 mm
06:50 PM 79.0°F26.1°C 68.8°F20.4°C 71% Calm Calm -- 29.82 in1009.8 mb 0.00 in0.0 mm 0.00 in/hr0.0 mm/hr 0.79 in20.1 mm
07:00 PM 78.4°F25.8°C 69.0°F20.6°C 73% Calm Calm -- 29.81 in1009.5 mb 0.00 in0.0 mm 0.00 in/hr0.0 mm/hr 0.79 in20.1 mm
07:10 PM 77.9°F25.5°C 69.3°F20.7°C 75% Calm Calm -- 29.81 in1009.5 mb 0.00 in0.0 mm 0.00 in/hr0.0 mm/hr 0.79 in20.1 mm
07:20 PM 77.3°F25.2°C 69.5°F20.8°C 77% Calm Calm -- 29.80 in1009.1 mb 0.00 in0.0 mm 0.00 in/hr0.0 mm/hr 0.79 in20.1 mm
07:30 PM 76.6°F24.8°C 69.6°F20.9°C 79% Calm Calm -- 29.79 in1008.8 mb 0.00 in0.0 mm 0.00 in/hr0.0 mm/hr 0.79 in20.1 mm
07:40 PM 76.1°F24.5°C 69.8°F21.0°C 81% Calm Calm -- 29.79 in1008.8 mb 0.00 in0.0 mm 0.00 in/hr0.0 mm/hr 0.79 in20.1 mm
07:50 PM 75.3°F24.1°C 70.1°F21.2°C 84% Calm Calm -- 29.79 in1008.8 mb 0.00 in0.0 mm 0.00 in/hr0.0 mm/hr 0.79 in20.1 mm
08:00 PM 74.4°F23.6°C 70.6°F21.4°C 88% Calm Calm -- 29.79 in1008.8 mb 0.00 in0.0 mm 0.00 in/hr0.0 mm/hr 0.79 in20.1 mm
08:10 PM 73.8°F23.2°C 70.7°F21.5°C 90% Calm Calm -- 29.78 in1008.5 mb 0.00 in0.0 mm 0.00 in/hr0.0 mm/hr 0.79 in20.1 mm
08:20 PM 73.8°F23.2°C 70.7°F21.5°C 90% 0.5 mph SE0.8 kmh SE 1.0 mph1.6 kmh 29.86 in1011.2 mb 0.14 in3.6 mm 0.84 in/hr21.3 mm/hr 0.95 in24.1 mm
08:30 PM 72.6°F22.6°C 70.5°F21.4°C 93% 0.2 mph ESE0.3 kmh ESE 1.0 mph1.6 kmh 29.85 in1010.8 mb 0.46 in11.7 mm 2.76 in/hr70.1 mm/hr 1.32 in33.5 mm
08:40 PM 71.8°F22.1°C 69.7°F20.9°C 93% Calm Calm -- 29.84 in1010.5 mb 0.01 in0.3 mm 0.06 in/hr1.5 mm/hr 1.33 in33.8 mm
08:50 PM 71.4°F21.9°C 69.6°F20.9°C 94% Calm Calm -- 29.82 in1009.8 mb 0.00 in0.0 mm 0.00 in/hr0.0 mm/hr 1.33 in33.8 mm
09:00 PM 71.2°F21.8°C 69.7°F20.9°C 95% Calm Calm -- 29.83 in1010.2 mb 0.00 in0.0 mm 0.00 in/hr0.0 mm/hr 1.33 in33.8 mm
09:10 PM 71.1°F21.7°C 69.6°F20.9°C 95% Calm Calm -- 29.82 in1009.8 mb 0.00 in0.0 mm 0.00 in/hr0.0 mm/hr 1.33 in33.8 mm
09:20 PM 71.0°F21.7°C 69.8°F21.0°C 96% 0.2 mph NE0.3 kmh NE 1.0 mph1.6 kmh 29.82 in1009.8 mb 0.00 in0.0 mm 0.00 in/hr0.0 mm/hr 1.33 in33.8 mm
09:30 PM 70.9°F21.6°C 69.7°F20.9°C 96% Calm Calm -- 29.82 in1009.8 mb 0.00 in0.0 mm 0.00 in/hr0.0 mm/hr 1.33 in33.8 mm
09:40 PM 70.9°F21.6°C 69.7°F20.9°C 96% Calm Calm 1.0 mph1.6 kmh 29.83 in1010.2 mb 0.00 in0.0 mm 0.00 in/hr0.0 mm/hr 1.33 in33.8 mm
09:50 PM 70.8°F21.6°C 69.6°F20.9°C 96% Calm Calm -- 29.84 in1010.5 mb 0.00 in0.0 mm 0.00 in/hr0.0 mm/hr 1.33 in33.8 mm
10:00 PM 70.6°F21.4°C 69.4°F20.8°C 96% Calm Calm -- 29.84 in1010.5 mb 0.00 in0.0 mm 0.00 in/hr0.0 mm/hr 1.33 in33.8 mm
10:10 PM 70.6°F21.4°C 69.4°F20.8°C 96% Calm Calm -- 29.85 in1010.8 mb 0.00 in0.0 mm 0.00 in/hr0.0 mm/hr 1.33 in33.8 mm
10:20 PM 70.5°F21.4°C 69.3°F20.7°C 96% Calm Calm -- 29.86 in1011.2 mb 0.00 in0.0 mm 0.00 in/hr0.0 mm/hr 1.33 in33.8 mm
10:30 PM 70.4°F21.3°C 69.5°F20.8°C 97% Calm Calm -- 29.85 in1010.8 mb 0.00 in0.0 mm 0.00 in/hr0.0 mm/hr 1.33 in33.8 mm
10:40 PM 70.3°F21.3°C 69.4°F20.8°C 97% Calm Calm -- 29.85 in1010.8 mb 0.00 in0.0 mm 0.00 in/hr0.0 mm/hr 1.33 in33.8 mm
10:50 PM 70.4°F21.3°C 69.5°F20.8°C 97% Calm Calm -- 29.86 in1011.2 mb 0.00 in0.0 mm 0.00 in/hr0.0 mm/hr 1.33 in33.8 mm
11:00 PM 70.4°F21.3°C 69.5°F20.8°C 97% Calm Calm -- 29.86 in1011.2 mb 0.00 in0.0 mm 0.00 in/hr0.0 mm/hr 1.33 in33.8 mm
11:10 PM 70.3°F21.3°C 69.4°F20.8°C 97% Calm Calm -- 29.86 in1011.2 mb 0.00 in0.0 mm 0.00 in/hr0.0 mm/hr 1.33 in33.8 mm
11:20 PM 70.2°F21.2°C 69.4°F20.8°C 97% Calm Calm -- 29.86 in1011.2 mb 0.00 in0.0 mm 0.00 in/hr0.0 mm/hr 1.33 in33.8 mm
11:30 PM 70.2°F21.2°C 69.3°F20.7°C 97% Calm Calm -- 29.86 in1011.2 mb 0.00 in0.0 mm 0.00 in/hr0.0 mm/hr 1.33 in33.8 mm
11:40 PM 70.2°F21.2°C 69.3°F20.7°C 97% Calm Calm -- 29.85 in1010.8 mb 0.00 in0.0 mm 0.00 in/hr0.0 mm/hr 1.33 in33.8 mm
11:50 PM 70.2°F21.2°C 69.3°F20.7°C 97% Calm Calm -- 29.84 in1010.5 mb 0.00 in0.0 mm 0.00 in/hr0.0 mm/hr 1.33 in33.8 mm